Avon, Colorado
Current Conditions -  °F | °C
As of 7:59 AM on Wednesday 22 Oct 2014 (Local Time) from KEGE Reporting Station
Scattered Clouds Scattered Clouds  
Wind Chill: 35°   Ceiling: Unl
Heat Index: 39°   Visibility: 10mi
Dew Point: 39°   Wind: 6mph
Humidity: 100%   Direction: 100°E
Pressure: 30.23"   Gusts: NA
Location:  39.63°N, 106.52°W
Report Text: KEGE 221359Z 10005KT 10SM FEW005 SCT050 04/04 A3023
Loading
Personal Weather Stations






























Interactive Weather Map
Tropical Storm Tracking
New forecast layout! Learn more

10-Day Weather Forecast

Advertisements
Track Severe Weather on mobile